createdAt,value
2018-06-11T00:01:37.616Z,16.80
2018-06-11T00:04:05.681Z,16.70
2018-06-11T00:06:33.750Z,16.50
2018-06-11T00:09:02.046Z,16.50
2018-06-11T00:11:30.103Z,16.40
2018-06-11T00:13:58.897Z,16.40
2018-06-11T00:16:26.962Z,16.40
2018-06-11T00:18:55.054Z,16.30
2018-06-11T00:21:23.109Z,16.20
2018-06-11T00:23:51.186Z,16.20
2018-06-11T00:26:19.229Z,16.20
2018-06-11T00:28:47.465Z,16.20
2018-06-11T00:31:15.494Z,16.00
2018-06-11T00:33:43.581Z,16.00
2018-06-11T00:36:11.645Z,16.00
2018-06-11T00:38:39.846Z,16.10
2018-06-11T00:41:07.901Z,16.00
2018-06-11T00:43:35.950Z,16.00
2018-06-11T00:46:04.113Z,15.90
2018-06-11T00:48:32.158Z,15.80
2018-06-11T00:51:00.214Z,15.80
2018-06-11T00:53:28.261Z,15.90
2018-06-11T00:56:05.521Z,15.70
2018-06-11T01:01:01.627Z,15.60
2018-06-11T01:03:29.705Z,15.60
2018-06-11T01:05:57.781Z,15.70
2018-06-11T01:08:25.850Z,15.60
2018-06-11T01:10:53.902Z,15.50
2018-06-11T01:13:21.953Z,15.60
2018-06-11T01:15:50.042Z,15.50
2018-06-11T01:18:18.286Z,15.40
2018-06-11T01:20:46.357Z,15.50
2018-06-11T01:23:14.417Z,15.50
2018-06-11T01:25:42.486Z,15.50
2018-06-11T01:28:10.546Z,15.50
2018-06-11T01:30:38.604Z,15.50
2018-06-11T01:33:06.765Z,15.40
2018-06-11T01:35:34.848Z,15.50
2018-06-11T01:40:30.746Z,15.30
2018-06-11T01:42:58.794Z,15.30
2018-06-11T01:45:26.838Z,15.30
2018-06-11T01:47:54.929Z,15.30
2018-06-11T01:50:23.002Z,15.30
2018-06-11T01:52:51.048Z,15.30
2018-06-11T01:55:19.109Z,15.30
2018-06-11T01:57:47.182Z,15.30
2018-06-11T02:00:15.241Z,15.30
2018-06-11T02:02:43.338Z,15.30
2018-06-11T02:05:11.378Z,15.40
2018-06-11T02:07:39.447Z,15.40
2018-06-11T02:10:07.605Z,15.60
2018-06-11T02:12:35.657Z,15.60
2018-06-11T02:15:03.713Z,15.60
2018-06-11T02:17:31.804Z,15.60
2018-06-11T02:19:59.882Z,15.60
2018-06-11T02:22:27.926Z,15.60
2018-06-11T02:24:56.038Z,15.60
2018-06-11T02:27:24.099Z,15.60
2018-06-11T02:29:52.151Z,15.60
2018-06-11T02:32:20.218Z,15.80
2018-06-11T02:34:48.278Z,15.90
2018-06-11T02:37:16.318Z,15.90
2018-06-11T02:39:44.373Z,15.80
2018-06-11T02:42:12.438Z,15.80
2018-06-11T02:44:40.478Z,15.90
2018-06-11T02:47:08.538Z,16.00
2018-06-11T02:49:36.590Z,16.00
2018-06-11T02:52:04.689Z,16.00
2018-06-11T02:54:32.746Z,15.90
2018-06-11T02:57:00.799Z,16.00
2018-06-11T02:59:28.851Z,16.00
2018-06-11T03:01:56.885Z,16.10
2018-06-11T03:04:24.941Z,16.00
2018-06-11T03:06:52.982Z,16.00
2018-06-11T03:09:21.053Z,16.00
2018-06-11T03:11:49.100Z,16.10
2018-06-11T03:14:17.764Z,16.10
2018-06-11T03:16:45.887Z,16.10
2018-06-11T03:19:13.937Z,16.00
2018-06-11T03:21:42.027Z,16.10
2018-06-11T03:24:10.070Z,16.10
2018-06-11T03:26:38.121Z,16.00
2018-06-11T03:29:06.421Z,15.90
2018-06-11T03:31:34.692Z,16.00
2018-06-11T03:34:02.731Z,16.00
2018-06-11T03:38:58.629Z,15.90
2018-06-11T03:41:26.725Z,15.90
2018-06-11T03:43:54.774Z,15.90
2018-06-11T03:46:22.869Z,15.90
2018-06-11T03:48:50.921Z,15.90
2018-06-11T03:51:18.974Z,15.90
2018-06-11T03:53:47.005Z,15.70
2018-06-11T03:56:15.069Z,15.70
2018-06-11T03:58:43.142Z,15.70
2018-06-11T04:03:39.065Z,15.60
2018-06-11T04:06:07.125Z,15.50
2018-06-11T04:08:35.193Z,15.50
2018-06-11T04:11:03.302Z,15.50
2018-06-11T04:13:31.306Z,15.50
2018-06-11T04:15:59.376Z,15.70
2018-06-11T04:18:27.593Z,15.70
2018-06-11T04:20:55.633Z,15.60
2018-06-11T04:23:23.701Z,15.60
2018-06-11T04:25:51.765Z,15.70
2018-06-11T04:28:19.828Z,15.70
2018-06-11T04:30:47.882Z,15.80
2018-06-11T04:33:15.946Z,15.90
2018-06-11T04:35:44.005Z,15.90
2018-06-11T04:38:12.077Z,15.90
2018-06-11T04:40:40.142Z,15.90
2018-06-11T04:43:08.185Z,15.90
2018-06-11T04:45:36.269Z,15.80
2018-06-11T04:48:04.317Z,15.90
2018-06-11T04:50:32.397Z,15.90
2018-06-11T04:53:00.467Z,15.90
2018-06-11T04:55:28.589Z,15.90
2018-06-11T04:57:56.637Z,15.90
2018-06-11T05:00:24.695Z,15.90
2018-06-11T05:02:52.791Z,16.00
2018-06-11T05:05:20.872Z,16.10
2018-06-11T05:07:48.949Z,16.20
2018-06-11T05:10:17.023Z,16.10
2018-06-11T05:12:45.057Z,15.80
2018-06-11T05:15:13.362Z,15.80
2018-06-11T05:17:41.393Z,16.00
2018-06-11T05:22:38.231Z,16.00
2018-06-11T05:25:06.362Z,16.10
2018-06-11T05:27:34.440Z,16.10
2018-06-11T05:32:30.321Z,16.10
2018-06-11T05:34:58.374Z,16.00
2018-06-11T05:37:26.430Z,16.10
2018-06-11T05:39:54.481Z,16.10
2018-06-11T05:42:22.632Z,16.10
2018-06-11T05:44:50.688Z,16.20
2018-06-11T05:47:18.777Z,16.40
2018-06-11T05:49:46.860Z,16.40
2018-06-11T05:52:14.897Z,16.50
2018-06-11T05:54:42.977Z,16.50
2018-06-11T05:57:11.095Z,16.40
2018-06-11T05:59:39.634Z,16.30
2018-06-11T06:02:07.719Z,16.30
2018-06-11T06:04:35.754Z,16.60
2018-06-11T06:07:03.883Z,16.60
2018-06-11T06:09:31.949Z,16.60
2018-06-11T06:12:00.046Z,16.50
2018-06-11T06:14:28.110Z,16.50
2018-06-11T06:16:57.240Z,16.40
2018-06-11T06:19:25.296Z,16.50
2018-06-11T06:21:53.609Z,16.60
2018-06-11T06:24:22.018Z,16.60
2018-06-11T06:26:50.209Z,16.40
2018-06-11T06:29:18.194Z,16.60
2018-06-11T06:31:46.285Z,16.60
2018-06-11T06:34:14.360Z,16.60
2018-06-11T06:36:42.434Z,16.60
2018-06-11T06:39:10.452Z,16.70
2018-06-11T06:41:39.582Z,16.80
2018-06-11T06:44:07.620Z,16.80
2018-06-11T06:46:35.882Z,16.80
2018-06-11T06:49:03.974Z,17.00
2018-06-11T06:51:32.049Z,17.20
2018-06-11T06:54:00.095Z,17.20
2018-06-11T06:56:28.240Z,17.20
2018-06-11T07:01:24.217Z,17.10
2018-06-11T07:03:52.277Z,17.30
2018-06-11T07:06:20.335Z,17.60
2018-06-11T07:08:48.409Z,17.80
2018-06-11T07:11:16.481Z,17.80
2018-06-11T07:13:44.551Z,17.80
2018-06-11T07:16:12.654Z,17.60
2018-06-11T07:18:40.718Z,17.60
2018-06-11T07:21:08.778Z,17.70
2018-06-11T07:23:36.862Z,17.50
2018-06-11T07:26:04.918Z,17.40
2018-06-11T07:28:32.985Z,17.40
2018-06-11T07:31:01.052Z,17.60
2018-06-11T07:33:29.081Z,17.80
2018-06-11T07:35:57.131Z,17.40
2018-06-11T07:38:25.201Z,17.30
2018-06-11T07:40:53.295Z,17.30
2018-06-11T07:43:21.309Z,17.50
2018-06-11T07:45:49.554Z,17.60
2018-06-11T07:48:17.646Z,17.70
2018-06-11T07:55:41.698Z,17.40
2018-06-11T07:58:09.750Z,17.30
2018-06-11T08:00:37.811Z,17.50
2018-06-11T08:03:05.872Z,17.50
2018-06-11T08:05:33.918Z,17.70
2018-06-11T08:08:01.964Z,17.70
2018-06-11T08:10:30.047Z,17.70
2018-06-11T08:12:58.069Z,18.50
2018-06-11T08:15:26.118Z,18.50
2018-06-11T08:17:54.178Z,18.90
2018-06-11T08:20:22.245Z,18.80
2018-06-11T08:22:50.336Z,18.40
2018-06-11T08:25:18.402Z,18.40
2018-06-11T08:27:47.061Z,18.50
2018-06-11T08:30:15.166Z,18.40
2018-06-11T08:32:43.214Z,18.40
2018-06-11T08:35:11.296Z,18.90
2018-06-11T08:37:39.350Z,19.00
2018-06-11T08:40:07.400Z,19.00
2018-06-11T08:42:35.466Z,19.20
2018-06-11T08:45:03.716Z,19.20
2018-06-11T08:47:31.787Z,18.90
2018-06-11T08:50:00.481Z,19.10
2018-06-11T08:54:56.394Z,19.30
2018-06-11T08:57:24.446Z,19.30
2018-06-11T08:59:53.161Z,19.40
2018-06-11T09:02:21.361Z,19.30
2018-06-11T09:04:49.401Z,18.90
2018-06-11T09:07:17.468Z,19.10
2018-06-11T09:09:45.823Z,19.10
2018-06-11T09:12:13.862Z,19.20
2018-06-11T09:14:41.920Z,19.30
2018-06-11T09:17:10.101Z,19.30
2018-06-11T09:22:06.043Z,19.20
2018-06-11T09:24:34.110Z,19.30
2018-06-11T09:27:02.157Z,19.30
2018-06-11T09:29:30.198Z,19.00
2018-06-11T09:31:58.256Z,18.90
2018-06-11T09:34:26.305Z,19.00
2018-06-11T09:36:54.385Z,18.90
2018-06-11T09:39:22.450Z,18.80
2018-06-11T09:41:50.541Z,18.80
2018-06-11T09:44:18.589Z,19.10
2018-06-11T09:46:46.646Z,19.30
2018-06-11T09:49:14.771Z,19.90
2018-06-11T09:51:42.778Z,20.00
2018-06-11T09:54:10.875Z,20.30
2018-06-11T09:56:38.943Z,20.10
2018-06-11T10:01:34.919Z,19.90
2018-06-11T10:04:03.121Z,19.60
2018-06-11T10:06:31.182Z,19.90
2018-06-11T10:08:59.277Z,19.90
2018-06-11T10:11:27.354Z,19.80
2018-06-11T10:13:55.426Z,19.80
2018-06-11T10:16:23.480Z,20.10
2018-06-11T10:18:51.580Z,20.00
2018-06-11T10:23:47.498Z,19.70
2018-06-11T10:26:15.822Z,19.60
2018-06-11T10:28:44.097Z,19.60
2018-06-11T10:31:12.131Z,19.70
2018-06-11T10:33:40.196Z,19.70
2018-06-11T10:36:08.312Z,19.90
2018-06-11T10:38:36.406Z,19.90
2018-06-11T10:41:04.710Z,20.00
2018-06-11T10:43:32.786Z,19.90
2018-06-11T10:46:00.831Z,20.00
2018-06-11T10:48:29.218Z,20.00
2018-06-11T10:50:57.333Z,20.00
2018-06-11T10:53:25.394Z,20.30
2018-06-11T10:55:53.458Z,20.40
2018-06-11T10:58:21.518Z,20.30
2018-06-11T11:00:50.476Z,20.00
2018-06-11T11:03:18.534Z,20.50
2018-06-11T11:05:46.589Z,20.40
2018-06-11T11:08:14.749Z,20.50
2018-06-11T11:10:42.797Z,20.70
2018-06-11T11:13:11.054Z,20.50
2018-06-11T11:15:39.073Z,20.40
2018-06-11T11:18:07.126Z,20.30
2018-06-11T11:23:03.113Z,20.30
2018-06-11T11:25:31.145Z,20.10
2018-06-11T11:27:59.219Z,20.00
2018-06-11T11:30:27.306Z,19.80
2018-06-11T11:32:55.366Z,20.30
2018-06-11T11:35:23.443Z,20.00
2018-06-11T11:37:51.521Z,20.20
2018-06-11T11:40:19.561Z,20.20
2018-06-11T11:42:47.645Z,20.40
2018-06-11T11:45:15.723Z,20.30
2018-06-11T11:47:43.774Z,20.00
2018-06-11T11:50:11.827Z,20.00
2018-06-11T11:52:39.870Z,20.00
2018-06-11T11:55:07.918Z,20.10
2018-06-11T11:57:35.980Z,20.10
2018-06-11T12:00:04.388Z,20.40
2018-06-11T12:02:32.434Z,20.50
2018-06-11T12:05:00.689Z,20.60
2018-06-11T12:07:28.794Z,20.50
2018-06-11T12:09:56.862Z,20.60
2018-06-11T12:12:24.910Z,20.40
2018-06-11T12:14:52.977Z,20.50
2018-06-11T12:17:21.014Z,20.40
2018-06-11T12:19:49.089Z,20.60
2018-06-11T12:22:17.136Z,20.50
2018-06-11T12:24:45.198Z,20.50
2018-06-11T12:27:13.300Z,20.70
2018-06-11T12:29:41.361Z,20.60
2018-06-11T12:32:09.425Z,20.40
2018-06-11T12:34:37.486Z,20.40
2018-06-11T12:37:05.554Z,20.10
2018-06-11T12:39:33.800Z,20.10
2018-06-11T12:42:01.846Z,20.10
2018-06-11T12:44:30.570Z,20.40
2018-06-11T12:46:58.665Z,20.30
2018-06-11T12:49:26.741Z,20.10
2018-06-11T12:54:22.966Z,20.30
2018-06-11T12:56:51.019Z,20.60
2018-06-11T12:59:19.084Z,20.50
2018-06-11T13:01:47.155Z,20.50
2018-06-11T13:04:15.205Z,20.70
2018-06-11T13:06:43.280Z,20.90
2018-06-11T13:09:11.349Z,20.90
2018-06-11T13:11:39.425Z,20.80
2018-06-11T13:14:07.475Z,20.80
2018-06-11T13:16:35.538Z,20.90
2018-06-11T13:19:03.582Z,20.80
2018-06-11T13:21:31.649Z,20.50
2018-06-11T13:23:59.729Z,20.60
2018-06-11T13:26:27.785Z,20.90
2018-06-11T13:28:55.881Z,21.00
2018-06-11T13:31:23.950Z,20.90
2018-06-11T13:33:52.850Z,21.00
2018-06-11T13:36:20.946Z,20.90
2018-06-11T13:38:49.009Z,20.90
2018-06-11T13:41:17.058Z,20.70
2018-06-11T13:43:45.138Z,20.50
2018-06-11T13:46:13.213Z,20.60
2018-06-11T13:48:41.272Z,20.40
2018-06-11T13:51:09.362Z,20.60
2018-06-11T13:56:05.326Z,20.30
2018-06-11T13:58:33.381Z,20.30
2018-06-11T14:01:01.455Z,20.20
2018-06-11T14:03:29.509Z,20.30
2018-06-11T14:08:25.468Z,20.20
2018-06-11T14:10:53.510Z,20.20
2018-06-11T14:13:21.578Z,20.10
2018-06-11T14:15:50.095Z,20.20
2018-06-11T14:18:18.201Z,20.00
2018-06-11T14:20:46.310Z,20.00
2018-06-11T14:23:14.367Z,20.20
2018-06-11T14:25:42.409Z,20.60
2018-06-11T14:28:10.483Z,21.00
2018-06-11T14:30:38.561Z,21.10
2018-06-11T14:33:06.621Z,21.50
2018-06-11T14:35:34.974Z,21.50
2018-06-11T14:38:02.997Z,20.90
2018-06-11T14:40:31.070Z,20.10
2018-06-11T14:42:59.134Z,20.00
2018-06-11T14:47:55.328Z,20.30
2018-06-11T14:50:23.386Z,20.40
2018-06-11T14:52:51.463Z,20.80
2018-06-11T14:55:19.730Z,20.50
2018-06-11T14:57:47.773Z,20.80
2018-06-11T15:00:15.834Z,20.60
2018-06-11T15:02:43.895Z,20.70
2018-06-11T15:05:11.954Z,20.80
2018-06-11T15:07:40.023Z,21.30
2018-06-11T15:10:08.114Z,21.30
2018-06-11T15:12:36.150Z,21.30
2018-06-11T15:15:04.206Z,20.90
2018-06-11T15:17:32.270Z,20.80
2018-06-11T15:22:28.532Z,21.00
2018-06-11T15:24:56.615Z,21.10
2018-06-11T15:27:24.658Z,21.10
2018-06-11T15:29:52.736Z,21.90
2018-06-11T15:32:20.849Z,21.90
2018-06-11T15:34:48.920Z,21.10
2018-06-11T15:39:44.950Z,21.30
2018-06-11T15:42:13.025Z,21.00
2018-06-11T15:44:41.097Z,21.00
2018-06-11T15:47:09.180Z,21.30
2018-06-11T15:49:37.254Z,21.90
2018-06-11T15:52:05.394Z,21.20
2018-06-11T15:54:33.449Z,21.50
2018-06-11T15:57:01.562Z,21.90
2018-06-11T15:59:30.786Z,22.00
2018-06-11T16:01:58.846Z,22.10
2018-06-11T16:04:26.911Z,22.70
2018-06-11T16:06:55.000Z,22.70
2018-06-11T16:09:23.212Z,22.50
2018-06-11T16:11:51.277Z,23.00
2018-06-11T16:14:19.331Z,22.70
2018-06-11T16:16:47.382Z,23.10
2018-06-11T16:21:43.350Z,23.70
2018-06-11T16:24:11.421Z,23.70
2018-06-11T16:26:39.492Z,23.70
2018-06-11T16:29:07.541Z,22.70
2018-06-11T16:31:35.714Z,22.80
2018-06-11T16:34:03.845Z,23.60
2018-06-11T16:36:31.913Z,24.10
2018-06-11T16:38:59.969Z,23.10
2018-06-11T16:41:28.060Z,22.20
2018-06-11T16:43:56.137Z,21.80
2018-06-11T16:46:24.179Z,21.70
2018-06-11T16:48:52.311Z,21.50
2018-06-11T16:51:20.345Z,21.30
2018-06-11T16:53:48.418Z,21.50
2018-06-11T16:56:16.484Z,21.40
2018-06-11T16:58:44.560Z,21.30
2018-06-11T17:01:12.657Z,21.20
2018-06-11T17:03:40.718Z,20.90
2018-06-11T17:06:08.810Z,21.20
2018-06-11T17:08:37.345Z,21.20
2018-06-11T17:11:05.619Z,21.70
2018-06-11T17:16:01.954Z,21.70
2018-06-11T17:18:30.016Z,21.90
2018-06-11T17:23:29.221Z,21.70
2018-06-11T17:25:57.310Z,21.80
2018-06-11T17:28:25.387Z,22.70
2018-06-11T17:30:53.474Z,22.70
2018-06-11T17:33:21.546Z,22.60
2018-06-11T17:35:49.598Z,23.00
2018-06-11T17:38:17.709Z,21.40
2018-06-11T17:40:45.793Z,20.80
2018-06-11T17:43:13.917Z,20.60
2018-06-11T17:45:42.001Z,20.00
2018-06-11T17:48:10.146Z,20.10
2018-06-11T17:50:38.474Z,19.80
2018-06-11T17:53:07.150Z,19.60
2018-06-11T17:55:35.466Z,19.60
2018-06-11T18:00:31.443Z,19.80
2018-06-11T18:07:55.402Z,18.90
2018-06-11T18:10:23.512Z,18.60
2018-06-11T18:15:19.485Z,18.30
2018-06-11T18:17:47.599Z,18.50
2018-06-11T18:22:43.523Z,18.80
2018-06-11T18:25:11.599Z,18.80
2018-06-11T18:27:39.657Z,18.50
2018-06-11T18:30:07.730Z,18.40
2018-06-11T18:32:35.849Z,18.70
2018-06-11T18:35:03.997Z,18.70
2018-06-11T18:37:32.109Z,18.30
2018-06-11T18:52:22.827Z,17.20
2018-06-11T18:59:46.646Z,16.90
2018-06-11T19:04:42.668Z,16.90
2018-06-11T19:07:10.772Z,16.90
2018-06-11T19:09:39.136Z,16.90
2018-06-11T19:12:07.177Z,16.80
2018-06-11T19:14:35.532Z,17.00
2018-06-11T19:17:03.613Z,16.90
2018-06-11T19:19:31.727Z,16.80
2018-06-11T19:21:59.934Z,16.80
2018-06-11T19:24:28.031Z,16.50
2018-06-11T19:31:51.956Z,16.60
2018-06-11T19:34:20.029Z,16.50
2018-06-11T19:39:16.350Z,12.60
2018-06-11T19:44:12.513Z,16.40
2018-06-11T19:49:08.763Z,16.40
2018-06-11T19:51:36.826Z,16.40
2018-06-11T19:54:04.986Z,16.30
2018-06-11T19:56:34.124Z,16.40
2018-06-11T19:59:02.221Z,16.30
2018-06-11T20:01:30.366Z,16.10
2018-06-11T20:03:58.453Z,16.20
2018-06-11T20:06:26.497Z,16.20
2018-06-11T20:08:54.717Z,16.30
2018-06-11T20:11:22.785Z,16.30
2018-06-11T20:13:50.870Z,16.30
2018-06-11T20:18:46.902Z,16.20
2018-06-11T20:21:15.014Z,16.20
2018-06-11T20:23:43.113Z,16.20
2018-06-11T20:26:11.194Z,16.30
2018-06-11T20:28:39.244Z,16.30
2018-06-11T20:31:07.353Z,16.20
2018-06-11T20:33:35.457Z,16.20
2018-06-11T20:36:03.631Z,16.20
2018-06-11T20:38:31.702Z,16.20
2018-06-11T20:40:59.794Z,16.20
2018-06-11T20:43:28.474Z,16.30
2018-06-11T20:45:56.548Z,16.30
2018-06-11T20:48:24.650Z,16.40
2018-06-11T20:50:52.726Z,16.40
2018-06-11T20:53:20.801Z,16.40
2018-06-11T20:55:49.368Z,16.30
2018-06-11T20:58:17.425Z,16.20
2018-06-11T21:00:45.482Z,16.00
2018-06-11T21:03:13.522Z,15.90
2018-06-11T21:05:41.671Z,16.10
2018-06-11T21:08:16.013Z,16.00
2018-06-11T21:10:44.106Z,16.00
2018-06-11T21:15:40.106Z,16.20
2018-06-11T21:18:08.193Z,16.20
2018-06-11T21:20:36.257Z,16.20
2018-06-11T21:23:04.714Z,16.20
2018-06-11T21:25:32.794Z,16.00
2018-06-11T21:28:01.230Z,16.10
2018-06-11T21:32:57.638Z,16.00
2018-06-11T21:35:25.703Z,15.90
2018-06-11T21:37:53.770Z,15.80
2018-06-11T21:40:21.841Z,15.90
2018-06-11T21:42:49.890Z,15.90
2018-06-11T21:45:17.954Z,15.90
2018-06-11T21:47:45.997Z,15.90
2018-06-11T21:50:14.055Z,16.00
2018-06-11T21:52:42.122Z,16.00
2018-06-11T21:55:10.182Z,15.90
2018-06-11T21:57:38.254Z,15.90
2018-06-11T22:00:07.161Z,16.00
2018-06-11T22:02:35.214Z,16.00
2018-06-11T22:05:03.292Z,15.80
2018-06-11T22:07:31.367Z,15.80
2018-06-11T22:09:59.406Z,15.80
2018-06-11T22:12:27.479Z,15.80
2018-06-11T22:14:55.514Z,15.80
2018-06-11T22:17:23.557Z,15.70
2018-06-11T22:19:51.606Z,15.70
2018-06-11T22:22:19.647Z,15.80
2018-06-11T22:24:47.697Z,15.80
2018-06-11T22:27:15.767Z,15.80
2018-06-11T22:29:43.822Z,15.80
2018-06-11T22:32:11.882Z,15.80
2018-06-11T22:34:39.975Z,15.70
2018-06-11T22:37:08.039Z,15.70
2018-06-11T22:39:36.153Z,15.60
2018-06-11T22:42:04.226Z,15.60
2018-06-11T22:44:32.292Z,15.60
2018-06-11T22:47:00.353Z,15.70
2018-06-11T22:49:28.414Z,15.60
2018-06-11T22:51:56.491Z,15.60
2018-06-11T22:54:24.541Z,15.60
2018-06-11T22:56:52.626Z,15.60
2018-06-11T22:59:20.690Z,15.60
2018-06-11T23:01:48.739Z,15.60
2018-06-11T23:04:16.795Z,15.40
2018-06-11T23:06:44.846Z,15.30
2018-06-11T23:09:12.915Z,15.20
2018-06-11T23:11:40.985Z,15.10
2018-06-11T23:14:09.045Z,15.10
2018-06-11T23:16:37.115Z,15.30
2018-06-11T23:19:05.174Z,15.40
2018-06-11T23:21:33.237Z,15.40
2018-06-11T23:24:01.320Z,15.40
2018-06-11T23:26:30.007Z,15.40
2018-06-11T23:28:58.066Z,15.30
2018-06-11T23:31:26.159Z,15.40
2018-06-11T23:33:54.225Z,15.40
2018-06-11T23:36:22.298Z,15.40
2018-06-11T23:38:50.406Z,15.40
2018-06-11T23:41:18.453Z,15.30
2018-06-11T23:43:46.513Z,15.20
2018-06-11T23:46:14.563Z,15.30
2018-06-11T23:48:42.616Z,15.30
2018-06-11T23:51:10.662Z,15.30
2018-06-11T23:53:38.696Z,15.30
2018-06-11T23:56:06.778Z,15.30
2018-06-11T23:58:34.846Z,15.20
